sensor_id;sensor_type;location;lat;lon;timestamp;P1;durP1;ratioP1;P2;durP2;ratioP2
5965;SDS011;3009;43.224;27.976;2024-01-25T00:01:29;13.80;;;10.60;;
5965;SDS011;3009;43.224;27.976;2024-01-25T00:03:57;16.30;;;9.80;;
5965;SDS011;3009;43.224;27.976;2024-01-25T00:06:26;14.50;;;10.13;;
5965;SDS011;3009;43.224;27.976;2024-01-25T00:08:54;17.30;;;11.33;;
5965;SDS011;3009;43.224;27.976;2024-01-25T00:11:24;17.00;;;11.37;;
5965;SDS011;3009;43.224;27.976;2024-01-25T00:13:52;19.83;;;11.73;;
5965;SDS011;3009;43.224;27.976;2024-01-25T00:16:21;22.47;;;11.30;;
5965;SDS011;3009;43.224;27.976;2024-01-25T00:18:49;22.97;;;11.80;;
5965;SDS011;3009;43.224;27.976;2024-01-25T00:21:18;14.83;;;10.50;;
5965;SDS011;3009;43.224;27.976;2024-01-25T00:23:46;19.70;;;10.47;;
5965;SDS011;3009;43.224;27.976;2024-01-25T00:26:15;13.57;;;10.67;;
5965;SDS011;3009;43.224;27.976;2024-01-25T00:28:45;16.03;;;10.10;;
5965;SDS011;3009;43.224;27.976;2024-01-25T00:31:13;14.07;;;9.40;;
5965;SDS011;3009;43.224;27.976;2024-01-25T00:33:42;13.53;;;9.53;;
5965;SDS011;3009;43.224;27.976;2024-01-25T00:36:11;12.90;;;9.30;;
5965;SDS011;3009;43.224;27.976;2024-01-25T00:38:41;14.17;;;8.70;;
5965;SDS011;3009;43.224;27.976;2024-01-25T00:41:10;11.90;;;8.43;;
5965;SDS011;3009;43.224;27.976;2024-01-25T00:43:42;11.10;;;8.47;;
5965;SDS011;3009;43.224;27.976;2024-01-25T00:46:13;18.40;;;8.83;;
5965;SDS011;3009;43.224;27.976;2024-01-25T00:48:42;16.83;;;8.90;;
5965;SDS011;3009;43.224;27.976;2024-01-25T00:51:13;12.30;;;8.50;;
5965;SDS011;3009;43.224;27.976;2024-01-25T00:53:43;11.67;;;7.70;;
5965;SDS011;3009;43.224;27.976;2024-01-25T00:56:12;11.30;;;7.93;;
5965;SDS011;3009;43.224;27.976;2024-01-25T00:58:41;14.00;;;8.60;;
5965;SDS011;3009;43.224;27.976;2024-01-25T01:01:11;16.07;;;9.77;;
5965;SDS011;3009;43.224;27.976;2024-01-25T01:03:40;24.03;;;10.70;;
5965;SDS011;3009;43.224;27.976;2024-01-25T01:06:10;20.67;;;12.37;;
5965;SDS011;3009;43.224;27.976;2024-01-25T01:08:39;20.60;;;13.33;;
5965;SDS011;3009;43.224;27.976;2024-01-25T01:11:08;17.93;;;11.40;;
5965;SDS011;3009;43.224;27.976;2024-01-25T01:13:36;20.20;;;13.30;;
5965;SDS011;3009;43.224;27.976;2024-01-25T01:16:04;27.27;;;14.33;;
5965;SDS011;3009;43.224;27.976;2024-01-25T01:18:35;28.00;;;15.67;;
5965;SDS011;3009;43.224;27.976;2024-01-25T01:21:07;27.77;;;16.17;;
5965;SDS011;3009;43.224;27.976;2024-01-25T01:23:35;26.40;;;15.00;;
5965;SDS011;3009;43.224;27.976;2024-01-25T01:26:04;25.03;;;15.93;;
5965;SDS011;3009;43.224;27.976;2024-01-25T01:31:04;22.13;;;13.77;;
5965;SDS011;3009;43.224;27.976;2024-01-25T01:33:32;19.03;;;12.17;;
5965;SDS011;3009;43.224;27.976;2024-01-25T01:36:02;14.70;;;10.60;;
5965;SDS011;3009;43.224;27.976;2024-01-25T01:38:31;19.00;;;11.10;;
5965;SDS011;3009;43.224;27.976;2024-01-25T01:40:59;12.80;;;9.00;;
5965;SDS011;3009;43.224;27.976;2024-01-25T01:43:28;13.10;;;9.00;;
5965;SDS011;3009;43.224;27.976;2024-01-25T01:45:57;16.20;;;9.20;;
5965;SDS011;3009;43.224;27.976;2024-01-25T01:48:35;16.40;;;8.90;;
5965;SDS011;3009;43.224;27.976;2024-01-25T01:51:06;12.80;;;8.50;;
5965;SDS011;3009;43.224;27.976;2024-01-25T01:53:36;14.13;;;7.90;;
5965;SDS011;3009;43.224;27.976;2024-01-25T01:56:05;14.93;;;6.80;;
5965;SDS011;3009;43.224;27.976;2024-01-25T01:58:34;10.47;;;7.40;;
5965;SDS011;3009;43.224;27.976;2024-01-25T02:01:03;10.17;;;8.50;;
5965;SDS011;3009;43.224;27.976;2024-01-25T02:03:33;10.50;;;8.00;;
5965;SDS011;3009;43.224;27.976;2024-01-25T02:06:01;11.90;;;7.50;;
5965;SDS011;3009;43.224;27.976;2024-01-25T02:08:32;9.13;;;6.50;;
5965;SDS011;3009;43.224;27.976;2024-01-25T02:11:00;7.77;;;6.53;;
5965;SDS011;3009;43.224;27.976;2024-01-25T02:13:30;10.70;;;6.43;;
5965;SDS011;3009;43.224;27.976;2024-01-25T02:15:58;10.87;;;6.97;;
5965;SDS011;3009;43.224;27.976;2024-01-25T02:18:28;9.00;;;7.30;;
5965;SDS011;3009;43.224;27.976;2024-01-25T02:20:57;14.40;;;8.00;;
5965;SDS011;3009;43.224;27.976;2024-01-25T02:23:27;13.53;;;9.10;;
5965;SDS011;3009;43.224;27.976;2024-01-25T02:25:56;12.53;;;8.03;;
5965;SDS011;3009;43.224;27.976;2024-01-25T02:28:24;14.37;;;9.90;;
5965;SDS011;3009;43.224;27.976;2024-01-25T02:30:52;11.20;;;9.10;;
5965;SDS011;3009;43.224;27.976;2024-01-25T02:33:21;14.80;;;9.53;;
5965;SDS011;3009;43.224;27.976;2024-01-25T02:35:49;13.60;;;9.07;;
5965;SDS011;3009;43.224;27.976;2024-01-25T02:38:18;12.27;;;8.67;;
5965;SDS011;3009;43.224;27.976;2024-01-25T02:40:47;11.70;;;8.10;;
5965;SDS011;3009;43.224;27.976;2024-01-25T02:43:17;12.03;;;7.50;;
5965;SDS011;3009;43.224;27.976;2024-01-25T02:45:45;12.07;;;7.83;;
5965;SDS011;3009;43.224;27.976;2024-01-25T02:48:15;11.20;;;7.73;;
5965;SDS011;3009;43.224;27.976;2024-01-25T02:50:44;14.03;;;9.20;;
5965;SDS011;3009;43.224;27.976;2024-01-25T02:53:13;10.80;;;8.10;;
5965;SDS011;3009;43.224;27.976;2024-01-25T02:55:41;11.53;;;8.53;;
5965;SDS011;3009;43.224;27.976;2024-01-25T02:58:11;13.50;;;8.47;;
5965;SDS011;3009;43.224;27.976;2024-01-25T03:00:39;10.07;;;8.27;;
5965;SDS011;3009;43.224;27.976;2024-01-25T03:03:08;9.67;;;8.20;;
5965;SDS011;3009;43.224;27.976;2024-01-25T03:05:36;13.83;;;9.40;;
5965;SDS011;3009;43.224;27.976;2024-01-25T03:08:05;16.40;;;10.10;;
5965;SDS011;3009;43.224;27.976;2024-01-25T03:10:33;13.23;;;9.33;;
5965;SDS011;3009;43.224;27.976;2024-01-25T03:13:02;13.73;;;10.37;;
5965;SDS011;3009;43.224;27.976;2024-01-25T03:15:32;16.47;;;10.60;;
5965;SDS011;3009;43.224;27.976;2024-01-25T03:18:01;15.70;;;9.73;;
5965;SDS011;3009;43.224;27.976;2024-01-25T03:20:30;12.87;;;8.47;;
5965;SDS011;3009;43.224;27.976;2024-01-25T03:22:58;16.40;;;9.80;;
5965;SDS011;3009;43.224;27.976;2024-01-25T03:25:27;14.57;;;10.43;;
5965;SDS011;3009;43.224;27.976;2024-01-25T03:27:55;14.97;;;9.27;;
5965;SDS011;3009;43.224;27.976;2024-01-25T03:30:24;11.50;;;8.37;;
5965;SDS011;3009;43.224;27.976;2024-01-25T03:32:53;13.53;;;7.53;;
5965;SDS011;3009;43.224;27.976;2024-01-25T03:35:22;10.37;;;7.23;;
5965;SDS011;3009;43.224;27.976;2024-01-25T03:37:50;10.97;;;7.80;;
5965;SDS011;3009;43.224;27.976;2024-01-25T03:40:19;8.23;;;6.60;;
5965;SDS011;3009;43.224;27.976;2024-01-25T03:42:47;9.50;;;5.60;;
5965;SDS011;3009;43.224;27.976;2024-01-25T03:45:34;10.10;;;6.70;;
5965;SDS011;3009;43.224;27.976;2024-01-25T03:48:04;12.67;;;7.33;;
5965;SDS011;3009;43.224;27.976;2024-01-25T03:50:33;9.77;;;7.03;;
5965;SDS011;3009;43.224;27.976;2024-01-25T03:53:01;9.30;;;7.10;;
5965;SDS011;3009;43.224;27.976;2024-01-25T03:55:33;10.27;;;6.17;;
5965;SDS011;3009;43.224;27.976;2024-01-25T03:58:02;9.23;;;6.63;;
5965;SDS011;3009;43.224;27.976;2024-01-25T04:00:30;9.70;;;6.23;;
5965;SDS011;3009;43.224;27.976;2024-01-25T04:02:59;9.57;;;7.67;;
5965;SDS011;3009;43.224;27.976;2024-01-25T04:05:29;9.00;;;6.93;;
5965;SDS011;3009;43.224;27.976;2024-01-25T04:07:57;6.43;;;5.70;;
5965;SDS011;3009;43.224;27.976;2024-01-25T04:10:25;6.27;;;5.50;;
5965;SDS011;3009;43.224;27.976;2024-01-25T04:12:54;6.80;;;5.57;;
5965;SDS011;3009;43.224;27.976;2024-01-25T04:15:23;5.30;;;4.80;;
5965;SDS011;3009;43.224;27.976;2024-01-25T04:17:51;6.60;;;4.60;;
5965;SDS011;3009;43.224;27.976;2024-01-25T04:20:20;5.73;;;5.00;;
5965;SDS011;3009;43.224;27.976;2024-01-25T04:22:50;12.63;;;6.30;;
5965;SDS011;3009;43.224;27.976;2024-01-25T04:25:19;10.60;;;6.47;;
5965;SDS011;3009;43.224;27.976;2024-01-25T04:27:47;7.20;;;5.77;;
5965;SDS011;3009;43.224;27.976;2024-01-25T04:30:16;9.37;;;5.80;;
5965;SDS011;3009;43.224;27.976;2024-01-25T04:32:45;5.77;;;5.17;;
5965;SDS011;3009;43.224;27.976;2024-01-25T04:35:13;8.37;;;6.50;;
5965;SDS011;3009;43.224;27.976;2024-01-25T04:37:42;8.27;;;5.30;;
5965;SDS011;3009;43.224;27.976;2024-01-25T04:40:12;6.43;;;4.40;;
5965;SDS011;3009;43.224;27.976;2024-01-25T04:42:40;6.80;;;4.77;;
5965;SDS011;3009;43.224;27.976;2024-01-25T04:45:09;6.27;;;4.57;;
5965;SDS011;3009;43.224;27.976;2024-01-25T04:47:38;5.93;;;4.23;;
5965;SDS011;3009;43.224;27.976;2024-01-25T04:50:07;5.20;;;4.70;;
5965;SDS011;3009;43.224;27.976;2024-01-25T04:52:36;4.80;;;4.40;;
5965;SDS011;3009;43.224;27.976;2024-01-25T04:55:04;5.20;;;4.23;;
5965;SDS011;3009;43.224;27.976;2024-01-25T04:57:35;6.83;;;4.50;;
5965;SDS011;3009;43.224;27.976;2024-01-25T05:00:03;11.57;;;4.50;;
5965;SDS011;3009;43.224;27.976;2024-01-25T05:02:33;8.10;;;4.80;;
5965;SDS011;3009;43.224;27.976;2024-01-25T05:05:01;7.17;;;5.13;;
5965;SDS011;3009;43.224;27.976;2024-01-25T05:07:30;5.20;;;4.67;;
5965;SDS011;3009;43.224;27.976;2024-01-25T05:09:58;5.83;;;4.10;;
5965;SDS011;3009;43.224;27.976;2024-01-25T05:12:27;6.90;;;5.10;;
5965;SDS011;3009;43.224;27.976;2024-01-25T05:14:57;6.47;;;4.27;;
5965;SDS011;3009;43.224;27.976;2024-01-25T05:17:26;4.37;;;3.97;;
5965;SDS011;3009;43.224;27.976;2024-01-25T05:19:55;5.67;;;4.57;;
5965;SDS011;3009;43.224;27.976;2024-01-25T05:22:23;5.57;;;4.23;;
5965;SDS011;3009;43.224;27.976;2024-01-25T05:24:52;6.73;;;4.90;;
5965;SDS011;3009;43.224;27.976;2024-01-25T05:27:20;4.67;;;4.20;;
5965;SDS011;3009;43.224;27.976;2024-01-25T05:29:49;7.43;;;4.57;;
5965;SDS011;3009;43.224;27.976;2024-01-25T05:32:19;8.73;;;5.47;;
5965;SDS011;3009;43.224;27.976;2024-01-25T05:34:48;6.13;;;4.17;;
5965;SDS011;3009;43.224;27.976;2024-01-25T05:37:17;5.80;;;4.20;;
5965;SDS011;3009;43.224;27.976;2024-01-25T05:39:51;6.90;;;4.90;;
5965;SDS011;3009;43.224;27.976;2024-01-25T05:42:20;9.90;;;5.23;;
5965;SDS011;3009;43.224;27.976;2024-01-25T05:44:48;4.50;;;4.10;;
5965;SDS011;3009;43.224;27.976;2024-01-25T05:47:36;4.57;;;3.90;;
5965;SDS011;3009;43.224;27.976;2024-01-25T05:50:05;7.77;;;4.80;;
5965;SDS011;3009;43.224;27.976;2024-01-25T05:52:34;7.03;;;5.20;;
5965;SDS011;3009;43.224;27.976;2024-01-25T05:55:05;5.57;;;4.33;;
5965;SDS011;3009;43.224;27.976;2024-01-25T05:57:34;7.03;;;4.90;;
5965;SDS011;3009;43.224;27.976;2024-01-25T06:00:04;14.80;;;5.20;;
5965;SDS011;3009;43.224;27.976;2024-01-25T06:02:34;8.30;;;5.50;;
5965;SDS011;3009;43.224;27.976;2024-01-25T06:05:04;5.83;;;4.70;;
5965;SDS011;3009;43.224;27.976;2024-01-25T06:07:33;6.97;;;4.77;;
5965;SDS011;3009;43.224;27.976;2024-01-25T06:10:02;6.73;;;5.33;;
5965;SDS011;3009;43.224;27.976;2024-01-25T06:12:30;7.13;;;5.30;;
5965;SDS011;3009;43.224;27.976;2024-01-25T06:14:59;9.10;;;4.90;;
5965;SDS011;3009;43.224;27.976;2024-01-25T06:17:28;7.60;;;4.80;;
5965;SDS011;3009;43.224;27.976;2024-01-25T06:19:57;7.43;;;5.93;;
5965;SDS011;3009;43.224;27.976;2024-01-25T06:22:27;11.83;;;5.57;;
5965;SDS011;3009;43.224;27.976;2024-01-25T06:24:55;6.73;;;4.83;;
5965;SDS011;3009;43.224;27.976;2024-01-25T06:27:24;8.90;;;5.80;;
5965;SDS011;3009;43.224;27.976;2024-01-25T06:29:52;7.50;;;4.83;;
5965;SDS011;3009;43.224;27.976;2024-01-25T06:32:21;7.03;;;5.30;;
5965;SDS011;3009;43.224;27.976;2024-01-25T06:34:52;12.00;;;5.70;;
5965;SDS011;3009;43.224;27.976;2024-01-25T06:37:21;5.90;;;5.30;;
5965;SDS011;3009;43.224;27.976;2024-01-25T06:39:51;9.40;;;6.50;;
5965;SDS011;3009;43.224;27.976;2024-01-25T06:42:19;9.83;;;7.43;;
5965;SDS011;3009;43.224;27.976;2024-01-25T06:44:48;11.47;;;7.97;;
5965;SDS011;3009;43.224;27.976;2024-01-25T06:47:17;11.03;;;7.40;;
5965;SDS011;3009;43.224;27.976;2024-01-25T06:49:48;7.53;;;5.30;;
5965;SDS011;3009;43.224;27.976;2024-01-25T06:52:18;6.60;;;5.77;;
5965;SDS011;3009;43.224;27.976;2024-01-25T06:54:47;9.30;;;5.80;;
5965;SDS011;3009;43.224;27.976;2024-01-25T06:57:23;10.83;;;6.17;;
5965;SDS011;3009;43.224;27.976;2024-01-25T06:59:52;9.80;;;6.50;;
5965;SDS011;3009;43.224;27.976;2024-01-25T07:02:20;8.60;;;5.80;;
5965;SDS011;3009;43.224;27.976;2024-01-25T07:04:50;9.70;;;6.67;;
5965;SDS011;3009;43.224;27.976;2024-01-25T07:07:20;8.20;;;6.20;;
5965;SDS011;3009;43.224;27.976;2024-01-25T07:09:49;8.20;;;7.17;;
5965;SDS011;3009;43.224;27.976;2024-01-25T07:12:18;8.90;;;6.40;;
5965;SDS011;3009;43.224;27.976;2024-01-25T07:14:48;11.10;;;7.13;;
5965;SDS011;3009;43.224;27.976;2024-01-25T07:17:16;14.87;;;6.27;;
5965;SDS011;3009;43.224;27.976;2024-01-25T07:19:45;10.80;;;6.20;;
5965;SDS011;3009;43.224;27.976;2024-01-25T07:22:13;10.07;;;6.23;;
5965;SDS011;3009;43.224;27.976;2024-01-25T07:24:44;7.57;;;5.93;;
5965;SDS011;3009;43.224;27.976;2024-01-25T07:27:12;11.07;;;7.80;;
5965;SDS011;3009;43.224;27.976;2024-01-25T07:29:43;11.20;;;7.00;;
5965;SDS011;3009;43.224;27.976;2024-01-25T07:32:13;9.43;;;6.80;;
5965;SDS011;3009;43.224;27.976;2024-01-25T07:34:41;9.67;;;6.43;;
5965;SDS011;3009;43.224;27.976;2024-01-25T07:37:10;11.57;;;7.10;;
5965;SDS011;3009;43.224;27.976;2024-01-25T07:39:38;8.17;;;6.30;;
5965;SDS011;3009;43.224;27.976;2024-01-25T07:42:07;8.03;;;5.93;;
5965;SDS011;3009;43.224;27.976;2024-01-25T07:44:36;8.43;;;6.30;;
5965;SDS011;3009;43.224;27.976;2024-01-25T07:47:04;7.63;;;6.17;;
5965;SDS011;3009;43.224;27.976;2024-01-25T07:49:34;7.83;;;6.20;;
5965;SDS011;3009;43.224;27.976;2024-01-25T07:52:03;10.00;;;6.43;;
5965;SDS011;3009;43.224;27.976;2024-01-25T07:54:31;12.50;;;6.83;;
5965;SDS011;3009;43.224;27.976;2024-01-25T07:57:00;9.13;;;7.30;;
5965;SDS011;3009;43.224;27.976;2024-01-25T07:59:28;13.67;;;6.20;;
5965;SDS011;3009;43.224;27.976;2024-01-25T08:01:58;12.07;;;6.90;;
5965;SDS011;3009;43.224;27.976;2024-01-25T08:04:26;6.00;;;5.40;;
5965;SDS011;3009;43.224;27.976;2024-01-25T08:06:56;9.10;;;6.23;;
5965;SDS011;3009;43.224;27.976;2024-01-25T08:09:26;10.00;;;5.00;;
5965;SDS011;3009;43.224;27.976;2024-01-25T08:11:54;9.50;;;5.97;;
5965;SDS011;3009;43.224;27.976;2024-01-25T08:14:22;6.20;;;5.57;;
5965;SDS011;3009;43.224;27.976;2024-01-25T08:16:54;9.37;;;5.60;;
5965;SDS011;3009;43.224;27.976;2024-01-25T08:19:22;7.37;;;5.47;;
5965;SDS011;3009;43.224;27.976;2024-01-25T08:21:52;7.00;;;5.30;;
5965;SDS011;3009;43.224;27.976;2024-01-25T08:24:22;10.57;;;5.77;;
5965;SDS011;3009;43.224;27.976;2024-01-25T08:26:50;11.20;;;6.50;;
5965;SDS011;3009;43.224;27.976;2024-01-25T08:29:19;9.33;;;7.13;;
5965;SDS011;3009;43.224;27.976;2024-01-25T08:31:47;12.27;;;7.70;;
5965;SDS011;3009;43.224;27.976;2024-01-25T08:34:16;13.43;;;6.67;;
5965;SDS011;3009;43.224;27.976;2024-01-25T08:36:45;15.80;;;7.43;;
5965;SDS011;3009;43.224;27.976;2024-01-25T08:39:13;12.70;;;6.90;;
5965;SDS011;3009;43.224;27.976;2024-01-25T08:41:43;14.43;;;6.13;;
5965;SDS011;3009;43.224;27.976;2024-01-25T08:44:15;13.77;;;8.03;;
5965;SDS011;3009;43.224;27.976;2024-01-25T08:46:44;13.13;;;8.40;;
5965;SDS011;3009;43.224;27.976;2024-01-25T08:49:12;16.33;;;9.13;;
5965;SDS011;3009;43.224;27.976;2024-01-25T08:51:41;11.33;;;8.37;;
5965;SDS011;3009;43.224;27.976;2024-01-25T08:54:10;14.93;;;8.97;;
5965;SDS011;3009;43.224;27.976;2024-01-25T08:56:38;23.50;;;8.80;;
5965;SDS011;3009;43.224;27.976;2024-01-25T08:59:08;15.63;;;8.80;;
5965;SDS011;3009;43.224;27.976;2024-01-25T09:01:36;24.00;;;9.70;;
5965;SDS011;3009;43.224;27.976;2024-01-25T09:04:05;23.10;;;9.47;;
5965;SDS011;3009;43.224;27.976;2024-01-25T09:06:34;13.50;;;8.10;;
5965;SDS011;3009;43.224;27.976;2024-01-25T09:09:03;16.10;;;8.23;;
5965;SDS011;3009;43.224;27.976;2024-01-25T09:11:31;19.53;;;12.30;;
5965;SDS011;3009;43.224;27.976;2024-01-25T09:14:00;12.57;;;7.73;;
5965;SDS011;3009;43.224;27.976;2024-01-25T09:16:30;13.57;;;8.93;;
5965;SDS011;3009;43.224;27.976;2024-01-25T09:18:58;12.90;;;8.03;;
5965;SDS011;3009;43.224;27.976;2024-01-25T09:21:27;15.50;;;9.50;;
5965;SDS011;3009;43.224;27.976;2024-01-25T09:23:55;16.17;;;8.60;;
5965;SDS011;3009;43.224;27.976;2024-01-25T09:26:24;18.77;;;7.60;;
5965;SDS011;3009;43.224;27.976;2024-01-25T09:28:54;11.60;;;7.20;;
5965;SDS011;3009;43.224;27.976;2024-01-25T09:31:22;13.73;;;7.50;;
5965;SDS011;3009;43.224;27.976;2024-01-25T09:33:52;24.47;;;6.90;;
5965;SDS011;3009;43.224;27.976;2024-01-25T09:36:22;9.27;;;7.50;;
5965;SDS011;3009;43.224;27.976;2024-01-25T09:38:50;11.43;;;7.20;;
5965;SDS011;3009;43.224;27.976;2024-01-25T09:41:19;12.60;;;7.67;;
5965;SDS011;3009;43.224;27.976;2024-01-25T09:43:48;13.80;;;7.03;;
5965;SDS011;3009;43.224;27.976;2024-01-25T09:46:16;11.73;;;7.90;;
5965;SDS011;3009;43.224;27.976;2024-01-25T09:48:46;13.30;;;6.87;;
5965;SDS011;3009;43.224;27.976;2024-01-25T09:51:18;7.50;;;6.23;;
5965;SDS011;3009;43.224;27.976;2024-01-25T09:53:47;12.57;;;6.87;;
5965;SDS011;3009;43.224;27.976;2024-01-25T09:56:17;10.90;;;7.60;;
5965;SDS011;3009;43.224;27.976;2024-01-25T09:58:49;9.90;;;6.30;;
5965;SDS011;3009;43.224;27.976;2024-01-25T10:01:18;11.47;;;7.30;;
5965;SDS011;3009;43.224;27.976;2024-01-25T10:03:47;12.57;;;7.50;;
5965;SDS011;3009;43.224;27.976;2024-01-25T10:06:16;12.03;;;6.70;;
5965;SDS011;3009;43.224;27.976;2024-01-25T10:08:46;11.77;;;6.40;;
5965;SDS011;3009;43.224;27.976;2024-01-25T10:11:16;10.40;;;6.60;;
5965;SDS011;3009;43.224;27.976;2024-01-25T10:13:45;7.43;;;5.67;;
5965;SDS011;3009;43.224;27.976;2024-01-25T10:16:14;15.43;;;6.17;;
5965;SDS011;3009;43.224;27.976;2024-01-25T10:18:45;9.20;;;5.70;;
5965;SDS011;3009;43.224;27.976;2024-01-25T10:21:15;7.97;;;5.87;;
5965;SDS011;3009;43.224;27.976;2024-01-25T10:23:46;9.30;;;6.50;;
5965;SDS011;3009;43.224;27.976;2024-01-25T10:26:18;13.10;;;6.60;;
5965;SDS011;3009;43.224;27.976;2024-01-25T10:28:52;8.03;;;5.87;;
5965;SDS011;3009;43.224;27.976;2024-01-25T10:31:28;9.30;;;6.37;;
5965;SDS011;3009;43.224;27.976;2024-01-25T10:33:58;8.60;;;6.07;;
5965;SDS011;3009;43.224;27.976;2024-01-25T10:36:28;11.53;;;6.13;;
5965;SDS011;3009;43.224;27.976;2024-01-25T10:39:00;8.07;;;5.90;;
5965;SDS011;3009;43.224;27.976;2024-01-25T10:41:32;8.57;;;5.77;;
5965;SDS011;3009;43.224;27.976;2024-01-25T10:44:02;8.57;;;6.10;;
5965;SDS011;3009;43.224;27.976;2024-01-25T10:46:33;10.00;;;6.67;;
5965;SDS011;3009;43.224;27.976;2024-01-25T10:49:02;14.93;;;5.50;;
5965;SDS011;3009;43.224;27.976;2024-01-25T10:51:31;9.73;;;6.70;;
5965;SDS011;3009;43.224;27.976;2024-01-25T10:54:02;10.33;;;5.50;;
5965;SDS011;3009;43.224;27.976;2024-01-25T10:56:34;8.57;;;6.33;;
5965;SDS011;3009;43.224;27.976;2024-01-25T10:59:03;7.43;;;6.63;;
5965;SDS011;3009;43.224;27.976;2024-01-25T11:01:33;7.00;;;5.23;;
5965;SDS011;3009;43.224;27.976;2024-01-25T11:04:02;7.07;;;5.80;;
5965;SDS011;3009;43.224;27.976;2024-01-25T11:06:30;7.43;;;5.27;;
5965;SDS011;3009;43.224;27.976;2024-01-25T11:09:07;13.80;;;6.10;;
5965;SDS011;3009;43.224;27.976;2024-01-25T11:11:36;10.97;;;6.80;;
5965;SDS011;3009;43.224;27.976;2024-01-25T11:14:04;8.40;;;5.80;;
5965;SDS011;3009;43.224;27.976;2024-01-25T11:16:40;13.57;;;6.60;;
5965;SDS011;3009;43.224;27.976;2024-01-25T11:19:15;7.43;;;6.37;;
5965;SDS011;3009;43.224;27.976;2024-01-25T11:22:02;9.97;;;7.67;;
5965;SDS011;3009;43.224;27.976;2024-01-25T11:24:36;6.87;;;5.30;;
5965;SDS011;3009;43.224;27.976;2024-01-25T11:27:06;10.07;;;7.10;;
5965;SDS011;3009;43.224;27.976;2024-01-25T11:29:36;8.47;;;6.17;;
5965;SDS011;3009;43.224;27.976;2024-01-25T11:32:09;8.50;;;6.07;;
5965;SDS011;3009;43.224;27.976;2024-01-25T11:34:38;7.77;;;5.77;;
5965;SDS011;3009;43.224;27.976;2024-01-25T11:37:06;8.77;;;6.30;;
5965;SDS011;3009;43.224;27.976;2024-01-25T11:39:36;7.57;;;5.83;;
5965;SDS011;3009;43.224;27.976;2024-01-25T11:42:05;7.47;;;5.33;;
5965;SDS011;3009;43.224;27.976;2024-01-25T11:44:34;10.13;;;5.70;;
5965;SDS011;3009;43.224;27.976;2024-01-25T11:47:03;12.20;;;5.70;;
5965;SDS011;3009;43.224;27.976;2024-01-25T11:49:32;15.50;;;7.90;;
5965;SDS011;3009;43.224;27.976;2024-01-25T11:52:02;10.90;;;6.77;;
5965;SDS011;3009;43.224;27.976;2024-01-25T11:54:31;11.87;;;7.90;;
5965;SDS011;3009;43.224;27.976;2024-01-25T11:57:01;8.30;;;5.57;;
5965;SDS011;3009;43.224;27.976;2024-01-25T11:59:29;11.80;;;5.10;;
5965;SDS011;3009;43.224;27.976;2024-01-25T12:01:58;12.00;;;6.53;;
5965;SDS011;3009;43.224;27.976;2024-01-25T12:04:27;8.10;;;5.53;;
5965;SDS011;3009;43.224;27.976;2024-01-25T12:06:58;9.53;;;5.73;;
5965;SDS011;3009;43.224;27.976;2024-01-25T12:09:26;10.40;;;5.70;;
5965;SDS011;3009;43.224;27.976;2024-01-25T12:11:55;13.27;;;6.10;;
5965;SDS011;3009;43.224;27.976;2024-01-25T12:14:25;8.33;;;5.80;;
5965;SDS011;3009;43.224;27.976;2024-01-25T12:16:54;8.37;;;5.40;;
5965;SDS011;3009;43.224;27.976;2024-01-25T12:19:23;6.17;;;5.30;;
5965;SDS011;3009;43.224;27.976;2024-01-25T12:21:51;9.93;;;5.93;;
5965;SDS011;3009;43.224;27.976;2024-01-25T12:24:20;10.40;;;6.83;;
5965;SDS011;3009;43.224;27.976;2024-01-25T12:26:48;7.93;;;6.50;;
5965;SDS011;3009;43.224;27.976;2024-01-25T12:29:17;11.90;;;6.03;;
5965;SDS011;3009;43.224;27.976;2024-01-25T12:31:47;15.07;;;5.33;;
5965;SDS011;3009;43.224;27.976;2024-01-25T12:34:15;19.47;;;6.00;;
5965;SDS011;3009;43.224;27.976;2024-01-25T12:36:44;11.10;;;7.33;;
5965;SDS011;3009;43.224;27.976;2024-01-25T12:39:13;11.03;;;6.53;;
5965;SDS011;3009;43.224;27.976;2024-01-25T12:41:45;10.93;;;6.63;;
5965;SDS011;3009;43.224;27.976;2024-01-25T12:44:14;12.43;;;6.83;;
5965;SDS011;3009;43.224;27.976;2024-01-25T12:46:43;11.50;;;6.60;;
5965;SDS011;3009;43.224;27.976;2024-01-25T12:49:13;12.03;;;7.67;;
5965;SDS011;3009;43.224;27.976;2024-01-25T12:51:43;14.30;;;7.87;;
5965;SDS011;3009;43.224;27.976;2024-01-25T12:54:11;9.33;;;5.97;;
5965;SDS011;3009;43.224;27.976;2024-01-25T12:56:40;10.20;;;6.33;;
5965;SDS011;3009;43.224;27.976;2024-01-25T12:59:09;13.37;;;6.53;;
5965;SDS011;3009;43.224;27.976;2024-01-25T13:01:37;12.40;;;5.10;;
5965;SDS011;3009;43.224;27.976;2024-01-25T13:04:06;9.17;;;4.97;;
5965;SDS011;3009;43.224;27.976;2024-01-25T13:06:36;13.63;;;6.00;;
5965;SDS011;3009;43.224;27.976;2024-01-25T13:09:05;12.10;;;5.57;;
5965;SDS011;3009;43.224;27.976;2024-01-25T13:11:34;9.97;;;6.53;;
5965;SDS011;3009;43.224;27.976;2024-01-25T13:14:03;7.97;;;6.10;;
5965;SDS011;3009;43.224;27.976;2024-01-25T13:16:31;13.10;;;8.80;;
5965;SDS011;3009;43.224;27.976;2024-01-25T13:18:59;24.13;;;10.30;;
5965;SDS011;3009;43.224;27.976;2024-01-25T13:21:28;17.20;;;10.30;;
5965;SDS011;3009;43.224;27.976;2024-01-25T13:23:58;10.07;;;7.90;;
5965;SDS011;3009;43.224;27.976;2024-01-25T13:26:27;20.03;;;7.97;;
5965;SDS011;3009;43.224;27.976;2024-01-25T13:28:55;13.60;;;8.10;;
5965;SDS011;3009;43.224;27.976;2024-01-25T13:31:24;12.50;;;7.60;;
5965;SDS011;3009;43.224;27.976;2024-01-25T13:33:52;17.90;;;8.30;;
5965;SDS011;3009;43.224;27.976;2024-01-25T13:36:21;21.37;;;7.53;;
5965;SDS011;3009;43.224;27.976;2024-01-25T13:38:49;18.47;;;8.00;;
5965;SDS011;3009;43.224;27.976;2024-01-25T13:41:19;12.70;;;7.37;;
5965;SDS011;3009;43.224;27.976;2024-01-25T13:43:48;20.83;;;7.77;;
5965;SDS011;3009;43.224;27.976;2024-01-25T13:46:16;12.70;;;6.57;;
5965;SDS011;3009;43.224;27.976;2024-01-25T13:48:47;12.10;;;7.13;;
5965;SDS011;3009;43.224;27.976;2024-01-25T13:51:16;12.03;;;7.10;;
5965;SDS011;3009;43.224;27.976;2024-01-25T13:53:44;14.93;;;7.10;;
5965;SDS011;3009;43.224;27.976;2024-01-25T13:56:14;10.77;;;5.57;;
5965;SDS011;3009;43.224;27.976;2024-01-25T13:58:44;11.30;;;5.20;;
5965;SDS011;3009;43.224;27.976;2024-01-25T14:01:12;8.50;;;5.93;;
5965;SDS011;3009;43.224;27.976;2024-01-25T14:03:41;11.10;;;5.00;;
5965;SDS011;3009;43.224;27.976;2024-01-25T14:06:11;9.03;;;5.63;;
5965;SDS011;3009;43.224;27.976;2024-01-25T14:08:40;9.37;;;5.60;;
5965;SDS011;3009;43.224;27.976;2024-01-25T14:11:09;7.90;;;4.50;;
5965;SDS011;3009;43.224;27.976;2024-01-25T14:13:40;7.47;;;4.43;;
5965;SDS011;3009;43.224;27.976;2024-01-25T14:16:10;11.60;;;5.10;;
5965;SDS011;3009;43.224;27.976;2024-01-25T14:18:44;7.13;;;5.00;;
5965;SDS011;3009;43.224;27.976;2024-01-25T14:21:13;7.00;;;5.43;;
5965;SDS011;3009;43.224;27.976;2024-01-25T14:23:42;8.90;;;4.73;;
5965;SDS011;3009;43.224;27.976;2024-01-25T14:26:11;8.93;;;4.90;;
5965;SDS011;3009;43.224;27.976;2024-01-25T14:28:40;8.43;;;5.37;;
5965;SDS011;3009;43.224;27.976;2024-01-25T14:31:10;7.00;;;4.20;;
5965;SDS011;3009;43.224;27.976;2024-01-25T14:33:38;6.67;;;4.70;;
5965;SDS011;3009;43.224;27.976;2024-01-25T14:36:11;11.63;;;5.40;;
5965;SDS011;3009;43.224;27.976;2024-01-25T14:38:41;13.57;;;5.70;;
5965;SDS011;3009;43.224;27.976;2024-01-25T14:41:10;16.60;;;6.37;;
5965;SDS011;3009;43.224;27.976;2024-01-25T14:43:39;15.00;;;5.40;;
5965;SDS011;3009;43.224;27.976;2024-01-25T14:46:07;9.57;;;4.90;;
5965;SDS011;3009;43.224;27.976;2024-01-25T14:48:37;14.33;;;6.07;;
5965;SDS011;3009;43.224;27.976;2024-01-25T14:51:05;11.20;;;6.27;;
5965;SDS011;3009;43.224;27.976;2024-01-25T14:53:34;10.60;;;6.30;;
5965;SDS011;3009;43.224;27.976;2024-01-25T14:56:02;11.10;;;6.53;;
5965;SDS011;3009;43.224;27.976;2024-01-25T14:58:31;13.47;;;7.00;;
5965;SDS011;3009;43.224;27.976;2024-01-25T15:01:00;16.50;;;8.70;;
5965;SDS011;3009;43.224;27.976;2024-01-25T15:03:30;20.33;;;10.13;;
5965;SDS011;3009;43.224;27.976;2024-01-25T15:06:00;15.10;;;7.03;;
5965;SDS011;3009;43.224;27.976;2024-01-25T15:08:29;11.40;;;6.40;;